Time;durP1;ratioP1;P1;durP2;ratioP2;P2;SDS_P1;SDS_P2;PMS_P1;PMS_P2;Temp;Humidity;BMP_temperature;BMP_pressure;BME280_temperature;BME280_humidity;BME280_pressure;Samples;Min_cycle;Max_cycle;Signal;HPM_P1;HPM_P2
2022/08/13 00:00:10;;;;;;;10.10;9.50;;;17.20;99.90;;;;;;5002801;28;20451;-53
2022/08/13 00:02:38;;;;;;;9.87;9.27;;;17.20;99.90;;;;;;5013983;28;20427;-52
2022/08/13 00:05:05;;;;;;;9.23;8.63;;;17.10;99.90;;;;;;5011757;28;20908;-52
2022/08/13 00:07:31;;;;;;;8.83;8.20;;;17.10;99.90;;;;;;5028293;28;20468;-54
2022/08/13 00:09:58;;;;;;;9.57;8.83;;;17.00;99.90;;;;;;5031320;28;20895;-52
2022/08/13 00:15:28;;;;;;;9.87;9.27;;;16.90;1.00;;;;;;5030874;28;20435;-51
2022/08/13 00:17:57;;;;;;;9.27;8.67;;;16.90;1.00;;;;;;5023844;28;20549;-55
2022/08/13 00:20:26;;;;;;;10.03;9.33;;;16.80;1.00;;;;;;5011634;28;20416;-51
2022/08/13 00:22:54;;;;;;;10.20;9.60;;;16.80;1.00;;;;;;5021361;28;21263;-55
2022/08/13 00:25:20;;;;;;;10.13;9.43;;;16.70;1.00;;;;;;5021253;28;20467;-55
2022/08/13 00:27:47;;;;;;;9.90;9.20;;;16.70;78.40;;;;;;5011726;28;20425;-53
2022/08/13 00:30:16;;;;;;;9.80;9.20;;;16.70;99.90;;;;;;5011666;28;20483;-53
2022/08/13 00:32:45;;;;;;;10.40;9.70;;;16.60;99.90;;;;;;5011349;28;20463;-53
2022/08/13 00:35:13;;;;;;;10.07;9.20;;;16.60;1.00;;;;;;5011232;28;20803;-50
2022/08/13 00:37:41;;;;;;;9.60;9.00;;;16.60;99.90;;;;;;5002686;28;20429;-53
2022/08/13 00:40:11;;;;;;;9.70;9.00;;;16.60;1.00;;;;;;5031060;28;20435;-50
2022/08/13 00:42:38;;;;;;;9.53;8.93;;;16.50;1.00;;;;;;5030537;28;20902;-51
2022/08/13 00:45:07;;;;;;;10.13;9.43;;;16.50;99.90;;;;;;5030740;28;20962;-52
2022/08/13 00:50:18;;;;;;;10.53;9.70;;;16.50;99.90;;;;;;5028841;28;20464;-52
2022/08/13 00:52:45;;;;;;;9.77;9.10;;;16.40;99.90;;;;;;5015693;28;20502;-52
2022/08/13 00:55:16;;;;;;;9.93;9.20;;;16.40;99.90;;;;;;5030627;28;20416;-53
2022/08/13 00:57:44;;;;;;;9.87;9.27;;;16.30;39.10;;;;;;5022268;28;20504;-53
2022/08/13 01:00:15;;;;;;;9.90;9.30;;;16.30;17.80;;;;;;5010567;28;20431;-51
2022/08/13 01:02:43;;;;;;;10.33;9.70;;;16.30;1.00;;;;;;5010633;28;20550;-56
2022/08/13 01:05:09;;;;;;;10.10;9.40;;;16.20;99.90;;;;;;5010853;28;20435;-53
2022/08/13 01:07:43;;;;;;;10.30;9.50;;;16.20;1.00;;;;;;5020125;28;20885;-49
2022/08/13 01:10:11;;;;;;;10.57;9.87;;;16.10;1.00;;;;;;5028815;28;20446;-52
2022/08/13 01:12:38;;;;;;;10.47;9.67;;;16.10;1.00;;;;;;5029730;28;20928;-54
2022/08/13 01:15:06;;;;;;;9.70;9.10;;;16.00;99.90;;;;;;5030260;28;20425;-52
2022/08/13 01:17:35;;;;;;;10.50;9.80;;;16.00;99.90;;;;;;5027959;28;20443;-48
2022/08/13 01:20:02;;;;;;;9.83;9.20;;;16.00;99.90;;;;;;5010887;28;20448;-53
2022/08/13 01:22:29;;;;;;;9.60;8.87;;;16.00;1.00;;;;;;5026709;28;20790;-51
2022/08/13 01:24:55;;;;;;;9.97;9.27;;;15.90;1.00;;;;;;5030013;28;20876;-53
2022/08/13 01:27:25;;;;;;;10.63;9.93;;;15.90;1.00;;;;;;5023944;28;20447;-50
2022/08/13 01:29:51;;;;;;;10.57;9.87;;;15.90;1.00;;;;;;5009577;28;20435;-52
2022/08/13 01:32:19;;;;;;;9.80;9.20;;;15.80;99.90;;;;;;5014096;28;20474;-54
2022/08/13 01:34:47;;;;;;;9.67;9.07;;;15.80;1.00;;;;;;5016808;28;20425;-54
2022/08/13 01:37:14;;;;;;;10.03;9.33;;;15.80;1.00;;;;;;5022826;28;20883;-54
2022/08/13 01:39:40;;;;;;;10.03;9.43;;;15.80;1.00;;;;;;5023766;28;20537;-53
2022/08/13 01:42:20;;;;;;;10.23;9.53;;;15.70;99.90;;;;;;5029657;28;20950;-55
2022/08/13 01:44:47;;;;;;;9.87;9.17;;;15.70;1.00;;;;;;5029161;28;20207;-51
2022/08/13 01:52:42;;;;;;;9.83;9.13;;;15.60;99.90;;;;;;5012410;28;20465;-52
2022/08/13 01:55:08;;;;;;;10.60;9.80;;;15.60;1.00;;;;;;5010479;28;20765;-53
2022/08/13 01:57:36;;;;;;;10.10;9.40;;;15.60;1.00;;;;;;5028455;28;20472;-53
2022/08/13 02:00:09;;;;;;;9.67;8.97;;;15.50;99.90;;;;;;5027810;28;20757;-52
2022/08/13 02:02:35;;;;;;;10.17;9.37;;;15.40;1.00;;;;;;5022188;28;21127;-51
2022/08/13 02:05:03;;;;;;;11.20;10.10;;;15.30;99.90;;;;;;5029550;28;20883;-50
2022/08/13 02:07:30;;;;;;;9.97;9.27;;;15.30;99.90;;;;;;5020622;28;21083;-51
2022/08/13 02:09:56;;;;;;;10.07;9.17;;;15.30;1.00;;;;;;5038095;28;20455;-54
2022/08/13 02:12:21;;;;;;;10.27;9.47;;;15.30;1.00;;;;;;5030712;28;20821;-51
2022/08/13 02:14:47;;;;;;;9.90;9.20;;;15.30;1.00;;;;;;5014899;28;20223;-54
2022/08/13 02:17:25;;;;;;;10.37;9.67;;;15.30;1.00;;;;;;5001870;28;20191;-54
2022/08/13 02:19:55;;;;;;;10.07;9.37;;;15.30;1.00;;;;;;5028256;28;20187;-51
2022/08/13 02:22:22;;;;;;;10.27;9.57;;;15.30;1.00;;;;;;5029380;28;20907;-53
2022/08/13 02:24:56;;;;;;;10.30;9.60;;;15.20;1.00;;;;;;5029210;28;20528;-54
2022/08/13 02:27:25;;;;;;;11.47;10.67;;;15.20;1.00;;;;;;5028822;28;20441;-52
2022/08/13 02:29:53;;;;;;;10.70;9.90;;;15.20;1.00;;;;;;5029189;28;20418;-55
2022/08/13 02:32:19;;;;;;;9.80;9.10;;;15.20;1.00;;;;;;5029312;28;20503;-53
2022/08/13 02:34:49;;;;;;;10.07;9.37;;;15.20;99.90;;;;;;5029261;28;20822;-53
2022/08/13 02:37:15;;;;;;;10.57;9.77;;;15.20;99.90;;;;;;5029460;28;20409;-51
2022/08/13 02:39:42;;;;;;;10.00;9.20;;;15.10;99.90;;;;;;5028766;28;20441;-54
2022/08/13 02:42:09;;;;;;;10.40;9.60;;;15.10;99.90;;;;;;5029365;28;20772;-53
2022/08/13 02:44:35;;;;;;;10.07;9.37;;;15.10;99.90;;;;;;5029036;28;20409;-53
2022/08/13 02:47:04;;;;;;;10.63;9.90;;;15.20;99.90;;;;;;5029160;28;20824;-53
2022/08/13 02:49:31;;;;;;;9.77;9.07;;;15.10;99.90;;;;;;5028936;28;20438;-53
2022/08/13 02:51:58;;;;;;;10.63;9.83;;;15.10;99.90;;;;;;5029340;28;20504;-53
2022/08/13 02:54:25;;;;;;;9.67;9.00;;;15.10;99.90;;;;;;5029172;28;20454;-54
2022/08/13 02:56:51;;;;;;;11.00;10.00;;;15.10;99.90;;;;;;5029085;28;20420;-52
2022/08/13 02:59:16;;;;;;;10.00;9.30;;;15.10;99.90;;;;;;5029029;28;20409;-51
2022/08/13 03:01:45;;;;;;;11.20;10.40;;;15.00;99.90;;;;;;5028013;28;20459;-52
2022/08/13 03:04:14;;;;;;;10.60;9.83;;;14.90;1.00;;;;;;5029201;28;20186;-53
2022/08/13 03:06:39;;;;;;;10.57;9.67;;;14.90;1.00;;;;;;5026720;28;21086;-54
2022/08/13 03:09:05;;;;;;;11.00;10.10;;;14.90;1.00;;;;;;5016394;28;20438;-54
2022/08/13 03:11:32;;;;;;;10.00;9.30;;;14.80;1.00;;;;;;5018533;28;20191;-55
2022/08/13 03:14:07;;;;;;;10.20;9.40;;;14.80;1.00;;;;;;5012691;28;20195;-53
2022/08/13 03:16:34;;;;;;;10.17;9.47;;;14.80;1.00;;;;;;5027146;28;20488;-53
2022/08/13 03:19:00;;;;;;;10.50;9.77;;;14.80;1.00;;;;;;5032400;28;20462;-53
2022/08/13 03:21:38;;;;;;;10.17;9.47;;;14.70;1.00;;;;;;5024865;28;20449;-54
2022/08/13 03:24:06;;;;;;;9.97;9.27;;;14.70;1.00;;;;;;5019507;28;20438;-53
2022/08/13 03:26:32;;;;;;;11.20;10.40;;;14.70;1.00;;;;;;5020210;28;20422;-55
2022/08/13 03:29:02;;;;;;;9.73;8.97;;;14.70;1.00;;;;;;5017887;28;20441;-55
2022/08/13 03:31:29;;;;;;;11.00;10.17;;;14.70;1.00;;;;;;5032334;28;20500;-56
2022/08/13 03:33:58;;;;;;;10.80;10.00;;;14.70;1.00;;;;;;5018987;28;20519;-52
2022/08/13 03:36:28;;;;;;;10.97;10.17;;;14.70;1.00;;;;;;5032461;28;20402;-53
2022/08/13 03:38:53;;;;;;;10.47;9.70;;;14.70;1.00;;;;;;5031666;28;20942;-56
2022/08/13 03:41:19;;;;;;;10.37;9.67;;;14.70;1.00;;;;;;5032480;28;20410;-52
2022/08/13 03:43:47;;;;;;;11.20;10.20;;;14.60;1.00;;;;;;5032178;28;20596;-53
2022/08/13 03:46:16;;;;;;;11.20;10.40;;;14.60;1.00;;;;;;5031415;28;20265;-53
2022/08/13 03:48:47;;;;;;;10.97;10.17;;;14.60;1.00;;;;;;5032428;28;20417;-59
2022/08/13 03:51:14;;;;;;;12.90;10.13;;;14.60;1.00;;;;;;5032054;28;20390;-53
2022/08/13 03:53:41;;;;;;;11.83;10.70;;;14.60;1.00;;;;;;5030791;28;21062;-51
2022/08/13 03:56:08;;;;;;;11.23;10.43;;;14.60;1.00;;;;;;5012547;28;21180;-49
2022/08/13 03:58:34;;;;;;;11.43;10.53;;;14.50;1.00;;;;;;5032256;28;20398;-53
2022/08/13 04:01:04;;;;;;;11.17;10.37;;;14.50;1.00;;;;;;5031933;28;20448;-51
2022/08/13 04:03:36;;;;;;;10.50;9.80;;;14.60;1.00;;;;;;5031355;28;20466;-54
2022/08/13 04:06:19;;;;;;;10.70;9.87;;;14.60;1.00;;;;;;5026028;28;20896;-51
2022/08/13 04:08:48;;;;;;;10.80;9.93;;;14.60;1.00;;;;;;5026672;28;20441;-54
2022/08/13 04:11:17;;;;;;;11.20;10.10;;;14.70;1.00;;;;;;5027067;28;20414;-55
2022/08/13 04:13:43;;;;;;;10.83;10.00;;;14.70;1.00;;;;;;5019072;28;20486;-53
2022/08/13 04:16:16;;;;;;;11.50;10.50;;;14.80;1.00;;;;;;5000737;28;20912;-52
2022/08/13 04:18:43;;;;;;;11.20;10.30;;;14.80;1.00;;;;;;5027395;28;20555;-53
2022/08/13 04:21:11;;;;;;;10.50;9.70;;;14.90;1.00;;;;;;5013331;28;20800;-53
2022/08/13 04:23:39;;;;;;;11.37;10.37;;;15.00;1.00;;;;;;5027861;28;20818;-52
2022/08/13 04:26:08;;;;;;;11.07;10.07;;;15.10;1.00;;;;;;5025093;28;20508;-52
2022/08/13 04:28:35;;;;;;;11.17;10.30;;;15.10;1.00;;;;;;5025056;28;20584;-51
2022/08/13 04:31:02;;;;;;;11.13;10.33;;;15.20;1.00;;;;;;5024907;28;20442;-53
2022/08/13 04:33:27;;;;;;;11.37;10.30;;;15.20;1.00;;;;;;5031450;28;20420;-53
2022/08/13 04:35:53;;;;;;;11.13;10.27;;;15.30;99.90;;;;;;5030221;28;20769;-54
2022/08/13 04:38:19;;;;;;;11.60;10.10;;;15.30;99.90;;;;;;5011545;28;20184;-51
2022/08/13 04:40:46;;;;;;;10.33;9.53;;;15.40;99.90;;;;;;5011288;28;20427;-52
2022/08/13 04:43:13;;;;;;;10.80;10.00;;;15.40;99.90;;;;;;5017941;28;20507;-52
2022/08/13 04:45:40;;;;;;;10.87;10.03;;;15.40;99.90;;;;;;5031024;28;20413;-54
2022/08/13 04:48:15;;;;;;;10.40;9.63;;;15.40;99.90;;;;;;5030887;28;20541;-54
2022/08/13 04:50:43;;;;;;;11.50;10.60;;;15.40;99.90;;;;;;5030895;28;20432;-49
2022/08/13 04:53:25;;;;;;;11.60;10.70;;;15.30;99.90;;;;;;5030966;28;20788;-52
2022/08/13 04:55:51;;;;;;;11.77;10.87;;;15.30;99.90;;;;;;5027873;28;20882;-51
2022/08/13 04:58:17;;;;;;;13.23;10.80;;;15.30;99.90;;;;;;5017638;28;20794;-50
2022/08/13 05:00:44;;;;;;;13.13;10.37;;;15.20;99.90;;;;;;5027955;28;20449;-50
2022/08/13 05:03:19;;;;;;;11.50;9.90;;;15.20;99.90;;;;;;5031476;28;20462;-54
2022/08/13 05:05:46;;;;;;;11.77;10.87;;;15.20;99.90;;;;;;5030599;28;20453;-54
2022/08/13 05:08:14;;;;;;;11.90;11.00;;;15.20;99.90;;;;;;5027969;28;20407;-52
2022/08/13 05:10:41;;;;;;;11.23;10.43;;;15.20;99.90;;;;;;5030372;28;20959;-51
2022/08/13 05:13:22;;;;;;;11.40;10.60;;;15.30;99.90;;;;;;5030115;28;20499;-52
2022/08/13 05:15:48;;;;;;;11.63;10.83;;;15.40;99.90;;;;;;5030716;28;21090;-55
2022/08/13 05:18:18;;;;;;;11.23;10.40;;;15.40;1.00;;;;;;5030308;28;20422;-54
2022/08/13 05:20:44;;;;;;;10.97;10.17;;;15.40;1.00;;;;;;5030730;28;20425;-51
2022/08/13 05:23:10;;;;;;;12.17;11.27;;;15.50;8.50;;;;;;5030615;28;20453;-51
2022/08/13 05:25:36;;;;;;;11.33;10.53;;;15.50;1.00;;;;;;5029802;28;20501;-55
2022/08/13 05:28:02;;;;;;;11.23;10.43;;;15.60;1.00;;;;;;5030447;28;20934;-51
2022/08/13 05:30:28;;;;;;;11.23;10.30;;;15.80;1.00;;;;;;5029859;28;20932;-55
2022/08/13 05:32:57;;;;;;;12.33;11.33;;;15.80;99.90;;;;;;5030137;28;20896;-53
2022/08/13 05:35:25;;;;;;;11.23;10.33;;;15.80;99.90;;;;;;5028779;28;20430;-53
2022/08/13 05:37:51;;;;;;;12.00;11.03;;;15.90;1.00;;;;;;5023877;28;20426;-51
2022/08/13 05:40:17;;;;;;;11.77;10.77;;;16.00;99.90;;;;;;5021474;28;21054;-51
2022/08/13 05:42:43;;;;;;;11.60;10.80;;;16.10;1.00;;;;;;5023076;28;20556;-53
2022/08/13 05:45:09;;;;;;;13.03;12.10;;;16.30;1.00;;;;;;5022600;28;20511;-54
2022/08/13 05:47:36;;;;;;;11.03;10.33;;;16.30;99.90;;;;;;5026477;28;20201;-53
2022/08/13 05:50:08;;;;;;;13.10;12.03;;;16.40;99.90;;;;;;5021706;28;20857;-53
2022/08/13 05:52:35;;;;;;;11.50;10.60;;;16.40;1.00;;;;;;5018893;28;20998;-53
2022/08/13 05:55:03;;;;;;;12.07;10.90;;;16.40;99.90;;;;;;5024724;28;21324;-49
2022/08/13 05:57:29;;;;;;;12.33;11.03;;;16.50;99.90;;;;;;5010149;28;20428;-53
2022/08/13 06:05:23;;;;;;;11.50;10.70;;;16.70;99.90;;;;;;5021007;28;20539;-54
2022/08/13 06:07:49;;;;;;;11.73;10.93;;;16.80;9.20;;;;;;5029429;28;20506;-53
2022/08/13 06:10:14;;;;;;;12.50;11.50;;;16.90;1.00;;;;;;5029123;28;20998;-48
2022/08/13 06:12:43;;;;;;;12.50;11.60;;;17.00;1.00;;;;;;5024666;28;20247;-53
2022/08/13 06:15:10;;;;;;;12.60;11.70;;;17.20;99.90;;;;;;5009888;28;20764;-54
2022/08/13 06:17:37;;;;;;;11.20;10.50;;;17.40;99.90;;;;;;5011502;28;20486;-50
2022/08/13 06:20:05;;;;;;;12.50;11.50;;;17.50;99.20;;;;;;5009773;28;20423;-50
2022/08/13 06:22:33;;;;;;;12.27;11.37;;;17.70;1.00;;;;;;5010930;28;20497;-55
2022/08/13 06:25:02;;;;;;;11.57;10.77;;;17.90;1.00;;;;;;5022487;28;20470;-52
2022/08/13 06:27:28;;;;;;;11.77;10.87;;;18.10;99.90;;;;;;5014469;28;20787;-55
2022/08/13 06:29:57;;;;;;;11.80;11.00;;;18.10;99.90;;;;;;5018277;28;20500;-53
2022/08/13 06:32:23;;;;;;;12.50;11.70;;;18.20;99.90;;;;;;5022522;28;20496;-51
2022/08/13 06:34:51;;;;;;;12.00;11.20;;;18.30;11.20;;;;;;5017272;28;20417;-55
2022/08/13 06:37:18;;;;;;;12.20;11.40;;;18.30;1.00;;;;;;5022351;28;20931;-56
2022/08/13 06:39:45;;;;;;;12.00;11.20;;;18.40;1.00;;;;;;5010681;28;20451;-56
2022/08/13 06:42:11;;;;;;;11.70;10.90;;;18.40;1.00;;;;;;5002499;28;20410;-53
2022/08/13 06:44:39;;;;;;;11.23;10.60;;;18.40;1.00;;;;;;5002736;28;21292;-51
2022/08/13 06:47:05;;;;;;;11.53;10.73;;;18.50;1.00;;;;;;5015570;28;20436;-55
2022/08/13 06:49:32;;;;;;;11.87;11.07;;;18.50;1.00;;;;;;5013366;28;20432;-50
2022/08/13 06:51:58;;;;;;;12.07;11.17;;;18.60;1.00;;;;;;5020723;28;20437;-53
2022/08/13 06:54:25;;;;;;;11.27;10.40;;;18.60;1.00;;;;;;5023564;28;20532;-53
2022/08/13 06:56:53;;;;;;;11.10;10.20;;;18.60;1.00;;;;;;5018163;28;20893;-54
2022/08/13 06:59:20;;;;;;;10.90;10.20;;;18.80;99.90;;;;;;5023779;28;20433;-55
2022/08/13 07:01:47;;;;;;;11.23;10.43;;;18.90;99.90;;;;;;5023354;28;21211;-54
2022/08/13 07:04:19;;;;;;;11.13;10.33;;;19.00;99.90;;;;;;5027115;28;20462;-56
2022/08/13 07:06:47;;;;;;;11.17;10.37;;;19.10;99.90;;;;;;5029413;28;20434;-52
2022/08/13 07:09:13;;;;;;;12.90;11.73;;;19.20;99.90;;;;;;5027378;28;20414;-53
2022/08/13 07:11:44;;;;;;;10.63;9.93;;;19.30;99.90;;;;;;5032589;28;20417;-52
2022/08/13 07:14:10;;;;;;;11.77;10.67;;;19.40;74.80;;;;;;5013521;28;20920;-49
2022/08/13 07:16:37;;;;;;;10.93;10.23;;;19.40;49.00;;;;;;5030291;28;20930;-55
2022/08/13 07:19:03;;;;;;;11.83;11.00;;;19.50;20.60;;;;;;5023961;28;20494;-54
2022/08/13 07:21:31;;;;;;;11.73;10.93;;;19.50;1.00;;;;;;5025007;28;20429;-55
2022/08/13 07:23:57;;;;;;;11.23;10.53;;;19.50;1.00;;;;;;5017071;28;20458;-55
2022/08/13 07:26:29;;;;;;;11.60;10.80;;;19.60;1.00;;;;;;5012209;28;20435;-50
2022/08/13 07:28:55;;;;;;;11.30;10.50;;;19.60;1.00;;;;;;5014056;28;20422;-51
2022/08/13 07:31:29;;;;;;;11.40;10.70;;;19.60;1.00;;;;;;5030880;28;20433;-53
2022/08/13 07:33:56;;;;;;;12.17;11.17;;;19.70;1.00;;;;;;5030647;28;20713;-49
2022/08/13 07:36:27;;;;;;;11.70;10.90;;;19.70;1.00;;;;;;5027130;28;20895;-52
2022/08/13 07:38:53;;;;;;;11.00;10.30;;;19.70;1.00;;;;;;5017046;28;20505;-52
2022/08/13 07:41:21;;;;;;;11.77;10.93;;;19.70;1.00;;;;;;5012349;28;20938;-48
2022/08/13 07:43:47;;;;;;;12.33;11.50;;;19.70;1.00;;;;;;5011046;28;20224;-53
2022/08/13 07:46:17;;;;;;;12.10;11.20;;;19.80;1.00;;;;;;5012464;28;20439;-54
2022/08/13 07:48:49;;;;;;;11.47;10.77;;;19.80;1.00;;;;;;5013794;28;20411;-53
2022/08/13 07:51:19;;;;;;;12.47;11.57;;;19.90;1.00;;;;;;5012275;28;20414;-54
2022/08/13 07:53:54;;;;;;;11.40;10.70;;;20.00;1.00;;;;;;5012531;28;20467;-54
2022/08/13 07:56:29;;;;;;;12.00;11.20;;;20.10;1.00;;;;;;5031308;28;20424;-49
2022/08/13 07:59:06;;;;;;;11.30;10.50;;;20.20;1.00;;;;;;5031988;28;20421;-47
2022/08/13 08:01:42;;;;;;;11.10;10.40;;;20.40;1.00;;;;;;5031826;28;20420;-54
2022/08/13 08:04:09;;;;;;;11.40;10.60;;;20.50;1.00;;;;;;5027303;28;20557;-52
2022/08/13 08:06:35;;;;;;;11.40;10.60;;;20.60;1.00;;;;;;5025270;28;20464;-49
2022/08/13 08:09:00;;;;;;;11.70;10.90;;;20.60;1.00;;;;;;5029505;28;20765;-51
2022/08/13 08:14:11;;;;;;;10.93;10.23;;;20.70;1.00;;;;;;5011952;28;20255;-51
2022/08/13 08:16:40;;;;;;;12.43;11.60;;;20.80;1.00;;;;;;5012072;28;20423;-53
2022/08/13 08:19:06;;;;;;;12.30;11.37;;;20.90;1.00;;;;;;5029855;28;20492;-49
2022/08/13 08:21:32;;;;;;;11.40;10.50;;;20.90;1.00;;;;;;5031458;28;20428;-55
2022/08/13 08:24:01;;;;;;;11.53;10.83;;;21.10;1.00;;;;;;5015466;28;20724;-50
2022/08/13 08:26:31;;;;;;;12.40;11.70;;;21.10;1.00;;;;;;5011668;28;20451;-48
2022/08/13 08:28:59;;;;;;;12.37;11.27;;;21.30;1.00;;;;;;5015121;28;20423;-53
2022/08/13 08:31:27;;;;;;;12.87;11.97;;;21.40;1.00;;;;;;5031390;28;20506;-54
2022/08/13 08:33:55;;;;;;;11.77;10.97;;;21.40;1.00;;;;;;5028805;28;20497;-52
2022/08/13 08:36:21;;;;;;;13.43;12.37;;;21.40;1.00;;;;;;5011555;28;20436;-49
2022/08/13 08:44:23;;;;;;;12.70;11.77;;;21.40;1.00;;;;;;5030826;28;21068;-52
2022/08/13 08:46:54;;;;;;;12.57;11.57;;;21.50;1.00;;;;;;5031083;28;20824;-53
2022/08/13 08:49:21;;;;;;;12.77;11.80;;;21.70;1.00;;;;;;5031041;28;20474;-51
2022/08/13 08:51:49;;;;;;;13.17;12.07;;;21.80;99.90;;;;;;5031379;28;20474;-51
2022/08/13 08:54:17;;;;;;;13.07;11.97;;;21.90;99.90;;;;;;5030601;28;20423;-50
2022/08/13 08:56:46;;;;;;;13.10;12.20;;;22.10;99.90;;;;;;5030916;28;20424;-51
2022/08/13 08:59:13;;;;;;;11.90;11.10;;;22.20;99.90;;;;;;5013411;28;20466;-52
2022/08/13 09:01:39;;;;;;;12.57;11.70;;;22.30;99.90;;;;;;5011003;28;20454;-49
2022/08/13 09:04:08;;;;;;;13.33;12.43;;;22.40;99.90;;;;;;5024301;28;20494;-48
2022/08/13 09:06:34;;;;;;;13.30;12.20;;;22.60;99.90;;;;;;5011237;28;20912;-47
2022/08/13 09:09:02;;;;;;;12.50;11.50;;;22.60;99.90;;;;;;5020633;28;20417;-50
2022/08/13 09:11:29;;;;;;;14.00;13.10;;;22.60;99.90;;;;;;5030635;28;20425;-48
2022/08/13 09:13:55;;;;;;;12.40;11.43;;;22.60;99.90;;;;;;5013811;28;20422;-52
2022/08/13 09:16:23;;;;;;;12.20;11.20;;;22.60;99.90;;;;;;5020785;28;20512;-50
2022/08/13 09:18:49;;;;;;;12.20;10.97;;;22.60;99.90;;;;;;5030169;28;20183;-49
2022/08/13 09:21:15;;;;;;;11.67;10.83;;;22.60;99.90;;;;;;5030446;28;20421;-53
2022/08/13 09:23:46;;;;;;;12.37;11.37;;;22.70;99.90;;;;;;5029017;28;20474;-52
2022/08/13 09:26:14;;;;;;;13.23;12.33;;;22.80;99.90;;;;;;5022720;28;20192;-51
2022/08/13 09:28:42;;;;;;;13.10;12.10;;;22.80;99.90;;;;;;5025073;28;20448;-50
2022/08/13 09:31:07;;;;;;;13.50;12.40;;;22.80;99.90;;;;;;5030111;28;20445;-50
2022/08/13 09:33:38;;;;;;;13.10;12.00;;;22.90;99.90;;;;;;5030148;28;20424;-53
2022/08/13 09:36:09;;;;;;;14.90;11.33;;;22.90;99.90;;;;;;5029974;28;20190;-52
2022/08/13 09:38:38;;;;;;;13.67;12.67;;;22.90;99.90;;;;;;5016394;28;20871;-49
2022/08/13 09:41:27;;;;;;;10.93;10.13;;;22.90;99.90;;;;;;5010631;28;20423;-52
2022/08/13 09:43:56;;;;;;;12.30;11.50;;;23.00;99.90;;;;;;5007062;28;20496;-51
2022/08/13 09:46:23;;;;;;;11.83;11.00;;;23.10;99.90;;;;;;5010594;28;20418;-50
2022/08/13 09:48:54;;;;;;;12.03;11.10;;;23.20;99.90;;;;;;5011811;28;20415;-51
2022/08/13 09:51:21;;;;;;;11.87;10.87;;;23.60;99.90;;;;;;5017831;28;20417;-52
2022/08/13 09:53:47;;;;;;;12.27;11.47;;;23.70;99.90;;;;;;5019573;28;20435;-49
2022/08/13 09:56:17;;;;;;;12.10;11.30;;;24.00;99.90;;;;;;5029931;28;20481;-51
2022/08/13 09:58:49;;;;;;;11.97;11.17;;;24.00;99.90;;;;;;5029390;28;20897;-48
2022/08/13 10:01:15;;;;;;;13.03;12.13;;;24.10;99.90;;;;;;5017359;28;20418;-48
2022/08/13 10:03:42;;;;;;;12.20;11.33;;;24.30;99.90;;;;;;5029339;28;20875;-54
2022/08/13 10:06:10;;;;;;;12.77;11.87;;;24.40;99.90;;;;;;5029538;28;20185;-50
2022/08/13 10:08:36;;;;;;;12.63;11.63;;;24.50;99.90;;;;;;5016158;28;20419;-52
2022/08/13 10:11:02;;;;;;;13.40;12.47;;;24.50;99.90;;;;;;5016020;28;20442;-49
2022/08/13 10:13:28;;;;;;;13.63;12.63;;;24.60;99.90;;;;;;5029487;28;20418;-50
2022/08/13 10:15:54;;;;;;;12.77;11.90;;;24.60;99.90;;;;;;5029509;28;20944;-50
2022/08/13 10:18:20;;;;;;;13.27;12.17;;;24.60;99.90;;;;;;5017294;28;20195;-49
2022/08/13 10:20:48;;;;;;;12.63;11.70;;;24.80;99.90;;;;;;5010054;28;20426;-51
2022/08/13 10:23:15;;;;;;;14.17;13.03;;;24.90;99.90;;;;;;5027451;28;20939;-52
2022/08/13 10:25:43;;;;;;;13.77;12.53;;;25.20;99.90;;;;;;5017045;28;20482;-50
2022/08/13 10:28:27;;;;;;;13.20;12.40;;;25.20;99.90;;;;;;5028491;28;20515;-49
2022/08/13 10:30:54;;;;;;;13.40;12.50;;;25.20;99.90;;;;;;5009685;28;20445;-51
2022/08/13 10:33:21;;;;;;;13.87;12.87;;;25.40;99.90;;;;;;5009302;28;20485;-50
2022/08/13 10:35:55;;;;;;;13.37;12.47;;;25.50;99.90;;;;;;5016035;28;20474;-49
2022/08/13 10:38:26;;;;;;;13.87;12.93;;;25.50;99.90;;;;;;5029229;28;20920;-51
2022/08/13 10:41:09;;;;;;;13.80;12.90;;;25.50;99.90;;;;;;5029053;28;20481;-52
2022/08/13 10:43:38;;;;;;;14.60;13.60;;;25.30;99.90;;;;;;5015855;28;20514;-49
2022/08/13 10:46:04;;;;;;;14.33;13.33;;;25.30;99.90;;;;;;5029077;28;20421;-50
2022/08/13 10:48:30;;;;;;;13.80;12.90;;;25.20;99.90;;;;;;5027438;28;20442;-55
2022/08/13 10:50:56;;;;;;;14.43;13.30;;;24.90;99.90;;;;;;5029327;28;20833;-51
2022/08/13 10:56:08;;;;;;;14.10;13.10;;;25.00;99.90;;;;;;5029083;28;20480;-50
2022/08/13 10:58:34;;;;;;;14.10;13.17;;;24.90;99.90;;;;;;5029093;28;20427;-49
2022/08/13 11:01:02;;;;;;;13.63;12.63;;;24.80;99.90;;;;;;5029105;28;20497;-49
2022/08/13 11:03:30;;;;;;;13.43;12.53;;;24.70;99.90;;;;;;5022449;28;20520;-51
2022/08/13 11:05:56;;;;;;;15.10;14.00;;;24.90;99.90;;;;;;5028928;28;20434;-49
2022/08/13 11:08:21;;;;;;;14.57;13.57;;;24.90;99.90;;;;;;5028743;28;20418;-51
2022/08/13 11:10:47;;;;;;;14.17;13.17;;;25.00;99.90;;;;;;5028612;28;20267;-54
2022/08/13 11:13:13;;;;;;;14.23;13.33;;;25.20;99.90;;;;;;5028853;28;20192;-50
2022/08/13 11:15:38;;;;;;;15.70;14.50;;;25.30;99.90;;;;;;5028854;28;20278;-54
2022/08/13 11:18:06;;;;;;;13.60;12.60;;;25.40;99.90;;;;;;5018247;28;20182;-55
2022/08/13 11:20:40;;;;;;;15.03;13.93;;;25.60;99.90;;;;;;5012460;28;20188;-54
2022/08/13 11:23:06;;;;;;;14.80;13.80;;;25.70;99.90;;;;;;5018499;28;20541;-54
2022/08/13 11:25:32;;;;;;;14.27;13.27;;;25.60;99.90;;;;;;5010163;28;20456;-50
2022/08/13 11:27:58;;;;;;;13.87;12.93;;;25.70;99.90;;;;;;5009052;28;20932;-53
2022/08/13 11:30:23;;;;;;;14.77;13.70;;;25.60;99.90;;;;;;5005346;28;20188;-52
2022/08/13 11:32:49;;;;;;;15.43;14.00;;;25.50;99.90;;;;;;5023733;28;20191;-54
2022/08/13 11:35:14;;;;;;;14.50;13.40;;;25.40;99.90;;;;;;5032516;28;20265;-54
2022/08/13 11:37:40;;;;;;;14.40;13.50;;;25.50;99.90;;;;;;5032628;28;20181;-51
2022/08/13 11:40:06;;;;;;;14.80;13.80;;;25.50;99.90;;;;;;5032201;28;20190;-55
2022/08/13 11:42:32;;;;;;;16.10;14.70;;;25.70;99.90;;;;;;5032038;28;20267;-50
2022/08/13 11:44:57;;;;;;;14.83;13.83;;;25.90;99.90;;;;;;5031958;28;20547;-51
2022/08/13 11:47:24;;;;;;;15.03;13.90;;;26.10;99.90;;;;;;5024526;28;20222;-50
2022/08/13 11:49:49;;;;;;;14.70;13.50;;;26.20;99.90;;;;;;5014008;28;20181;-51
2022/08/13 11:52:15;;;;;;;15.83;14.73;;;26.10;99.90;;;;;;5030769;28;20456;-52
2022/08/13 11:54:40;;;;;;;15.43;14.43;;;26.00;99.90;;;;;;5021862;28;20190;-52
2022/08/13 11:57:07;;;;;;;16.70;15.50;;;25.70;99.90;;;;;;5012136;28;20199;-51
2022/08/13 11:59:33;;;;;;;16.03;14.93;;;25.60;99.90;;;;;;5012382;28;20217;-50
2022/08/13 12:01:58;;;;;;;15.27;14.17;;;25.60;99.90;;;;;;5028331;28;20561;-53
2022/08/13 12:04:25;;;;;;;15.80;14.33;;;25.50;99.90;;;;;;5026799;28;20209;-54
2022/08/13 12:06:50;;;;;;;15.90;14.80;;;25.50;99.90;;;;;;5012892;28;20223;-53
2022/08/13 12:09:20;;;;;;;15.57;14.47;;;25.30;99.90;;;;;;5009259;28;20549;-51
2022/08/13 12:11:46;;;;;;;16.60;15.40;;;25.20;99.90;;;;;;5011857;28;20718;-51
2022/08/13 12:14:11;;;;;;;17.53;16.20;;;25.10;99.90;;;;;;5010837;28;20431;-55
2022/08/13 12:16:37;;;;;;;18.60;17.20;;;25.00;99.90;;;;;;5029040;28;20203;-52
2022/08/13 12:19:03;;;;;;;17.13;15.93;;;24.90;99.90;;;;;;5031523;28;20189;-52
2022/08/13 12:21:28;;;;;;;17.50;16.40;;;24.90;99.90;;;;;;5031549;28;20175;-51
2022/08/13 12:23:54;;;;;;;17.50;16.20;;;24.90;99.90;;;;;;5017299;28;20200;-53
2022/08/13 12:26:20;;;;;;;18.20;16.80;;;24.90;99.90;;;;;;5001432;28;20188;-53
2022/08/13 12:28:45;;;;;;;17.40;16.13;;;24.90;99.90;;;;;;5031375;28;20817;-51
2022/08/13 12:31:13;;;;;;;17.67;16.47;;;24.90;99.90;;;;;;5013057;28;20192;-51
2022/08/13 12:33:38;;;;;;;18.40;17.10;;;24.90;99.90;;;;;;5023131;28;20612;-49
2022/08/13 12:36:05;;;;;;;17.30;16.10;;;24.90;99.90;;;;;;5031387;28;20498;-52
2022/08/13 12:38:31;;;;;;;18.67;17.37;;;24.80;99.90;;;;;;5031178;28;20723;-54
2022/08/13 12:40:59;;;;;;;17.87;16.57;;;24.90;99.90;;;;;;5031263;28;20423;-50
2022/08/13 12:43:24;;;;;;;17.93;16.70;;;24.90;99.90;;;;;;5021658;28;20211;-53
2022/08/13 12:45:50;;;;;;;18.37;17.07;;;25.00;99.90;;;;;;5021769;28;20431;-55
2022/08/13 12:48:16;;;;;;;17.10;15.90;;;25.00;99.90;;;;;;5019606;28;20266;-53
2022/08/13 12:50:45;;;;;;;16.80;15.50;;;24.90;99.90;;;;;;5030983;28;20642;-55
2022/08/13 12:53:11;;;;;;;17.60;16.30;;;24.90;99.90;;;;;;5011861;28;20495;-51
2022/08/13 12:55:40;;;;;;;17.93;16.73;;;25.00;99.90;;;;;;5011188;28;20451;-51
2022/08/13 12:58:12;;;;;;;17.40;16.17;;;25.10;99.90;;;;;;5011092;28;20504;-52
2022/08/13 13:00:38;;;;;;;16.80;15.60;;;25.20;99.90;;;;;;5011493;28;21327;-50
2022/08/13 13:03:03;;;;;;;17.50;16.17;;;25.40;99.90;;;;;;5030594;28;20466;-53
2022/08/13 13:05:30;;;;;;;17.43;15.93;;;25.80;99.90;;;;;;5030505;28;20268;-55